HOURLY OBS INDEX

060

Manning

PORT MAQUARIE (PORT MACQUARIE AIRPORT AW

Site: 060168
Alt: 4.5m
km of


  Time     Wind        Temp  DP   Baro     Rain since   Rain past  Vis(m), Cloud(base in m), Weather
  local        km/h                         9am  last   hr   10m    
Sun 11:00  NNE 19/ 24  32.9 17.9  1004.9    0.0   0.0   0.0   0.0   10000 
Sun 11:30  ENE 17/ 20  32.9 19.7  1004.7    0.0   0.0   0.0   0.0   10000 
Sun 12:00    E 17/ 20  30.8 19.2  1004.2    0.0   0.0   0.0   0.0   10000 
Sun 12:30    E 19/ 22  32.5 19.4  1003.7    0.0   0.0   0.0   0.0   10000 
Sun 13:00  ENE 17/ 20  35.2 20.3  1003.1    0.0   0.0   0.0   0.0   10000 
Sun 13:30  ENE 15/ 20  34.9 18.5  1002.9    0.0   0.0   0.0   0.0   10000 
Sun 14:00    E 17/ 20  32.8 18.6  1002.5    0.0   0.0   0.0   0.0   10000 
Sun 14:30  ENE 19/ 22  31.3 19.3  1002.4    0.0   0.0   0.0   0.0   10000 
Sun 15:00    E 17/ 20  31.3 19.9  1002.2    0.0   0.0   0.0   0.0   10000 
Sun 15:30   NE 17/ 20  34.2 20.2  1001.7    0.0   0.0   0.0   0.0   10000 
Sun 16:00    N 20/ 30  35.2 18.3  1001.2    0.0   0.0   0.0   0.0   10000 
Sun 16:30    E 11/ 15  31.3 18.6  1001.6    0.0   0.0   0.0   0.0   10000 

TAREE AIRPORT AWS

Site: 060141
Alt: 8.0m
6km ENE of TAREE


  Time     Wind        Temp  DP   Baro     Rain since   Rain past  Vis(m), Cloud(base in m), Weather
  local        km/h                         9am  last   hr   10m    
Sun 11:00   NW 15/ 22  36.7  9.3  1003.6    0.0   0.0   0.0   0.0   10000 
Sun 11:30   NW 22/ 28  38.2 10.5  1003.4    0.0   0.0   0.0   0.0   10000 
Sun 12:00   NW 24/ 37  39.2  8.8  1002.9    0.0   0.0   0.0   0.0   10000 
Sun 12:30   NW 19/ 39  40.0  9.4  1002.5    0.0   0.0   0.0   0.0   10000 
Sun 13:00   NW 26/ 39  40.2  8.6  1002.1    0.0   0.0   0.0   0.0   10000 
Sun 13:29  WNW 28/ 50  40.5  8.8  1001.9    0.0   0.0  ----   0.0   10000 
Sun 13:30  WNW 30/ 50  40.9  8.1  1001.9    0.0   0.0   0.0   0.0   10000 
Sun 14:00   NW 24/ 37  40.8  9.1  1001.8    0.0   0.0   0.0   0.0   10000 
Sun 14:30   NW 20/ 35  41.9 10.9  1001.3    0.0   0.0   0.0   0.0   10000 
Sun 14:41   NW 30/ 52  41.4  8.5  1001.3    0.0   0.0  ----   0.0   10000 
Sun 15:00   NW 24/ 37  40.7  8.0  1000.9    0.0   0.0   0.0   0.0   10000 
Sun 15:30   NW 26/ 37  40.2  8.6  1000.7    0.0   0.0   0.0   0.0   10000 
Sun 15:47  WNW 28/ 52  39.9  8.4  1000.7    0.0   0.0   0.0   0.0   10000 
Sun 16:00  WNW 28/ 48  40.3  8.7  1000.8    0.0   0.0   0.0   0.0   10000 
Sun 16:30  WNW 24/ 37  39.9  8.4  1000.7    0.0   0.0   0.0   0.0   10000